sensor_id;sensor_type;location;lat;lon;timestamp;temperature;humidity
57833;DHT22;43667;53.036;6.740;2022-08-01T00:00:32;18.10;99.90
57833;DHT22;43667;53.036;6.740;2022-08-01T00:02:58;18.20;99.90
57833;DHT22;43667;53.036;6.740;2022-08-01T00:05:24;18.10;99.90
57833;DHT22;43667;53.036;6.740;2022-08-01T00:07:49;18.10;99.90
57833;DHT22;43667;53.036;6.740;2022-08-01T00:10:16;18.10;99.90
57833;DHT22;43667;53.036;6.740;2022-08-01T00:12:42;18.10;99.90
57833;DHT22;43667;53.036;6.740;2022-08-01T00:15:10;18.10;99.90
57833;DHT22;43667;53.036;6.740;2022-08-01T00:17:37;18.10;99.90
57833;DHT22;43667;53.036;6.740;2022-08-01T00:20:04;18.00;99.90
57833;DHT22;43667;53.036;6.740;2022-08-01T00:22:31;18.00;99.90
57833;DHT22;43667;53.036;6.740;2022-08-01T00:24:57;18.00;99.90
57833;DHT22;43667;53.036;6.740;2022-08-01T00:27:22;17.90;99.90
57833;DHT22;43667;53.036;6.740;2022-08-01T00:29:48;18.00;99.90
57833;DHT22;43667;53.036;6.740;2022-08-01T00:32:13;17.90;99.90
57833;DHT22;43667;53.036;6.740;2022-08-01T00:34:39;18.00;99.90
57833;DHT22;43667;53.036;6.740;2022-08-01T00:37:05;17.90;99.90
57833;DHT22;43667;53.036;6.740;2022-08-01T00:39:30;18.00;99.90
57833;DHT22;43667;53.036;6.740;2022-08-01T00:41:58;17.90;99.90
57833;DHT22;43667;53.036;6.740;2022-08-01T00:44:24;17.90;99.90
57833;DHT22;43667;53.036;6.740;2022-08-01T00:46:50;17.90;99.90
57833;DHT22;43667;53.036;6.740;2022-08-01T00:49:15;17.90;99.90
57833;DHT22;43667;53.036;6.740;2022-08-01T00:51:41;17.90;99.90
57833;DHT22;43667;53.036;6.740;2022-08-01T00:54:07;17.90;99.90
57833;DHT22;43667;53.036;6.740;2022-08-01T00:56:33;17.90;99.90
57833;DHT22;43667;53.036;6.740;2022-08-01T00:58:58;17.90;99.90
57833;DHT22;43667;53.036;6.740;2022-08-01T01:01:24;17.80;99.90
57833;DHT22;43667;53.036;6.740;2022-08-01T01:03:51;17.90;99.90
57833;DHT22;43667;53.036;6.740;2022-08-01T01:09:42;17.90;99.90
57833;DHT22;43667;53.036;6.740;2022-08-01T01:12:34;17.90;99.90
57833;DHT22;43667;53.036;6.740;2022-08-01T01:15:21;17.90;99.90
57833;DHT22;43667;53.036;6.740;2022-08-01T01:20:28;17.90;99.90
57833;DHT22;43667;53.036;6.740;2022-08-01T01:23:06;17.90;99.90
57833;DHT22;43667;53.036;6.740;2022-08-01T01:25:47;17.80;99.90
57833;DHT22;43667;53.036;6.740;2022-08-01T01:31:21;17.90;99.90
57833;DHT22;43667;53.036;6.740;2022-08-01T01:33:49;17.80;99.90
57833;DHT22;43667;53.036;6.740;2022-08-01T01:36:17;17.80;99.90
57833;DHT22;43667;53.036;6.740;2022-08-01T01:38:45;17.90;99.90
57833;DHT22;43667;53.036;6.740;2022-08-01T01:41:14;17.90;99.90
57833;DHT22;43667;53.036;6.740;2022-08-01T01:43:41;17.90;99.90
57833;DHT22;43667;53.036;6.740;2022-08-01T01:46:09;17.90;99.90
57833;DHT22;43667;53.036;6.740;2022-08-01T01:48:37;17.90;99.90
57833;DHT22;43667;53.036;6.740;2022-08-01T01:51:04;17.90;99.90
57833;DHT22;43667;53.036;6.740;2022-08-01T01:53:33;17.90;99.90
57833;DHT22;43667;53.036;6.740;2022-08-01T01:56:00;17.90;99.90
57833;DHT22;43667;53.036;6.740;2022-08-01T01:58:29;17.90;99.90
57833;DHT22;43667;53.036;6.740;2022-08-01T02:00:59;17.90;99.90
57833;DHT22;43667;53.036;6.740;2022-08-01T02:03:26;17.90;99.90
57833;DHT22;43667;53.036;6.740;2022-08-01T02:05:53;17.90;99.90
57833;DHT22;43667;53.036;6.740;2022-08-01T02:08:21;17.90;99.90
57833;DHT22;43667;53.036;6.740;2022-08-01T02:10:50;17.90;99.90
57833;DHT22;43667;53.036;6.740;2022-08-01T02:13:36;17.80;99.90
57833;DHT22;43667;53.036;6.740;2022-08-01T02:16:04;17.80;99.90
57833;DHT22;43667;53.036;6.740;2022-08-01T02:18:30;17.80;99.90
57833;DHT22;43667;53.036;6.740;2022-08-01T02:20:57;17.80;99.90
57833;DHT22;43667;53.036;6.740;2022-08-01T02:23:25;17.80;99.90
57833;DHT22;43667;53.036;6.740;2022-08-01T02:25:53;17.80;99.90
57833;DHT22;43667;53.036;6.740;2022-08-01T02:28:25;17.80;99.90
57833;DHT22;43667;53.036;6.740;2022-08-01T02:30:53;17.80;99.90
57833;DHT22;43667;53.036;6.740;2022-08-01T02:33:24;17.80;99.90
57833;DHT22;43667;53.036;6.740;2022-08-01T02:35:54;17.70;99.90
57833;DHT22;43667;53.036;6.740;2022-08-01T02:38:24;17.70;99.90
57833;DHT22;43667;53.036;6.740;2022-08-01T02:40:52;17.70;99.90
57833;DHT22;43667;53.036;6.740;2022-08-01T02:43:21;17.70;99.90
57833;DHT22;43667;53.036;6.740;2022-08-01T02:45:54;17.70;99.90
57833;DHT22;43667;53.036;6.740;2022-08-01T02:48:22;17.70;99.90
57833;DHT22;43667;53.036;6.740;2022-08-01T02:50:53;17.70;99.90
57833;DHT22;43667;53.036;6.740;2022-08-01T02:53:21;17.70;99.90
57833;DHT22;43667;53.036;6.740;2022-08-01T02:55:49;17.60;99.90
57833;DHT22;43667;53.036;6.740;2022-08-01T02:58:18;17.60;99.90
57833;DHT22;43667;53.036;6.740;2022-08-01T03:00:46;17.60;99.90
57833;DHT22;43667;53.036;6.740;2022-08-01T03:03:13;17.60;99.90
57833;DHT22;43667;53.036;6.740;2022-08-01T03:05:41;17.60;99.90
57833;DHT22;43667;53.036;6.740;2022-08-01T03:08:09;17.50;99.90
57833;DHT22;43667;53.036;6.740;2022-08-01T03:10:38;17.50;99.90
57833;DHT22;43667;53.036;6.740;2022-08-01T03:13:07;17.50;99.90
57833;DHT22;43667;53.036;6.740;2022-08-01T03:15:35;17.40;99.90
57833;DHT22;43667;53.036;6.740;2022-08-01T03:18:04;17.40;99.90
57833;DHT22;43667;53.036;6.740;2022-08-01T03:20:31;17.40;99.90
57833;DHT22;43667;53.036;6.740;2022-08-01T03:23:01;17.30;99.90
57833;DHT22;43667;53.036;6.740;2022-08-01T03:25:29;17.30;99.90
57833;DHT22;43667;53.036;6.740;2022-08-01T03:27:58;17.30;99.90
57833;DHT22;43667;53.036;6.740;2022-08-01T03:30:26;17.30;99.90
57833;DHT22;43667;53.036;6.740;2022-08-01T03:32:52;17.20;99.90
57833;DHT22;43667;53.036;6.740;2022-08-01T03:35:19;17.20;99.90
57833;DHT22;43667;53.036;6.740;2022-08-01T03:37:46;17.20;99.90
57833;DHT22;43667;53.036;6.740;2022-08-01T03:40:35;17.20;99.90
57833;DHT22;43667;53.036;6.740;2022-08-01T03:43:07;17.20;99.90
57833;DHT22;43667;53.036;6.740;2022-08-01T03:45:37;17.20;99.90
57833;DHT22;43667;53.036;6.740;2022-08-01T03:48:09;17.10;99.90
57833;DHT22;43667;53.036;6.740;2022-08-01T03:50:36;17.10;99.90
57833;DHT22;43667;53.036;6.740;2022-08-01T03:53:06;17.10;99.90
57833;DHT22;43667;53.036;6.740;2022-08-01T03:55:33;17.10;99.90
57833;DHT22;43667;53.036;6.740;2022-08-01T03:58:00;17.10;99.90
57833;DHT22;43667;53.036;6.740;2022-08-01T04:00:26;17.00;99.90
57833;DHT22;43667;53.036;6.740;2022-08-01T04:02:52;17.00;99.90
57833;DHT22;43667;53.036;6.740;2022-08-01T04:05:18;17.00;99.90
57833;DHT22;43667;53.036;6.740;2022-08-01T04:07:48;16.90;99.90
57833;DHT22;43667;53.036;6.740;2022-08-01T04:10:23;16.90;99.90
57833;DHT22;43667;53.036;6.740;2022-08-01T04:12:49;16.80;99.90
57833;DHT22;43667;53.036;6.740;2022-08-01T04:15:15;16.80;99.90
57833;DHT22;43667;53.036;6.740;2022-08-01T04:17:41;16.80;99.90
57833;DHT22;43667;53.036;6.740;2022-08-01T04:20:07;16.70;99.90
57833;DHT22;43667;53.036;6.740;2022-08-01T04:22:33;16.70;99.90
57833;DHT22;43667;53.036;6.740;2022-08-01T04:25:00;16.70;99.90
57833;DHT22;43667;53.036;6.740;2022-08-01T04:27:30;16.70;99.90
57833;DHT22;43667;53.036;6.740;2022-08-01T04:29:59;16.70;99.90
57833;DHT22;43667;53.036;6.740;2022-08-01T04:32:27;16.70;99.90
57833;DHT22;43667;53.036;6.740;2022-08-01T04:34:57;16.70;99.90
57833;DHT22;43667;53.036;6.740;2022-08-01T04:37:25;16.70;99.90
57833;DHT22;43667;53.036;6.740;2022-08-01T04:39:52;16.70;99.90
57833;DHT22;43667;53.036;6.740;2022-08-01T04:42:18;16.70;99.90
57833;DHT22;43667;53.036;6.740;2022-08-01T04:44:44;16.70;99.90
57833;DHT22;43667;53.036;6.740;2022-08-01T04:47:10;16.70;99.90
57833;DHT22;43667;53.036;6.740;2022-08-01T04:49:37;16.70;99.90
57833;DHT22;43667;53.036;6.740;2022-08-01T04:52:03;16.70;99.90
57833;DHT22;43667;53.036;6.740;2022-08-01T04:54:34;16.70;99.90
57833;DHT22;43667;53.036;6.740;2022-08-01T04:57:02;16.60;99.90
57833;DHT22;43667;53.036;6.740;2022-08-01T04:59:29;16.60;99.90
57833;DHT22;43667;53.036;6.740;2022-08-01T05:02:09;16.60;99.90
57833;DHT22;43667;53.036;6.740;2022-08-01T05:04:36;16.70;99.90
57833;DHT22;43667;53.036;6.740;2022-08-01T05:07:02;16.60;99.90
57833;DHT22;43667;53.036;6.740;2022-08-01T05:09:28;16.60;99.90
57833;DHT22;43667;53.036;6.740;2022-08-01T05:11:53;16.60;99.90
57833;DHT22;43667;53.036;6.740;2022-08-01T05:14:19;16.60;99.90
57833;DHT22;43667;53.036;6.740;2022-08-01T05:16:46;16.60;99.90
57833;DHT22;43667;53.036;6.740;2022-08-01T05:19:12;16.60;99.90
57833;DHT22;43667;53.036;6.740;2022-08-01T05:21:37;16.60;99.90
57833;DHT22;43667;53.036;6.740;2022-08-01T05:24:04;16.60;99.90
57833;DHT22;43667;53.036;6.740;2022-08-01T05:26:30;16.60;99.90
57833;DHT22;43667;53.036;6.740;2022-08-01T05:28:56;16.60;99.90
57833;DHT22;43667;53.036;6.740;2022-08-01T05:31:21;16.60;99.90
57833;DHT22;43667;53.036;6.740;2022-08-01T05:33:47;16.60;99.90
57833;DHT22;43667;53.036;6.740;2022-08-01T05:36:12;16.60;99.90
57833;DHT22;43667;53.036;6.740;2022-08-01T05:38:38;16.60;99.90
57833;DHT22;43667;53.036;6.740;2022-08-01T05:41:04;16.60;99.90
57833;DHT22;43667;53.036;6.740;2022-08-01T05:43:30;16.60;99.90
57833;DHT22;43667;53.036;6.740;2022-08-01T05:45:55;16.60;99.90
57833;DHT22;43667;53.036;6.740;2022-08-01T05:48:21;16.60;99.90
57833;DHT22;43667;53.036;6.740;2022-08-01T05:50:47;16.60;99.90
57833;DHT22;43667;53.036;6.740;2022-08-01T05:53:13;16.70;99.90
57833;DHT22;43667;53.036;6.740;2022-08-01T05:55:39;16.60;99.90
57833;DHT22;43667;53.036;6.740;2022-08-01T05:58:04;16.60;99.90
57833;DHT22;43667;53.036;6.740;2022-08-01T06:00:30;16.60;99.90
57833;DHT22;43667;53.036;6.740;2022-08-01T06:02:56;16.60;99.90
57833;DHT22;43667;53.036;6.740;2022-08-01T06:05:21;16.70;99.90
57833;DHT22;43667;53.036;6.740;2022-08-01T06:07:47;16.60;99.90
57833;DHT22;43667;53.036;6.740;2022-08-01T06:10:13;16.70;99.90
57833;DHT22;43667;53.036;6.740;2022-08-01T06:12:38;16.70;99.90
57833;DHT22;43667;53.036;6.740;2022-08-01T06:15:05;16.70;99.90
57833;DHT22;43667;53.036;6.740;2022-08-01T06:17:31;16.80;99.90
57833;DHT22;43667;53.036;6.740;2022-08-01T06:19:56;16.80;99.90
57833;DHT22;43667;53.036;6.740;2022-08-01T06:22:22;16.80;99.90
57833;DHT22;43667;53.036;6.740;2022-08-01T06:24:47;16.80;99.90
57833;DHT22;43667;53.036;6.740;2022-08-01T06:27:13;16.80;99.90
57833;DHT22;43667;53.036;6.740;2022-08-01T06:29:40;16.90;99.90
57833;DHT22;43667;53.036;6.740;2022-08-01T06:32:07;17.00;99.90
57833;DHT22;43667;53.036;6.740;2022-08-01T06:34:36;16.90;99.90
57833;DHT22;43667;53.036;6.740;2022-08-01T06:37:01;17.00;99.90
57833;DHT22;43667;53.036;6.740;2022-08-01T06:39:27;17.10;99.90
57833;DHT22;43667;53.036;6.740;2022-08-01T06:41:53;17.10;99.90
57833;DHT22;43667;53.036;6.740;2022-08-01T06:44:18;17.10;99.90
57833;DHT22;43667;53.036;6.740;2022-08-01T06:46:44;17.10;99.90
57833;DHT22;43667;53.036;6.740;2022-08-01T06:49:10;17.20;99.90
57833;DHT22;43667;53.036;6.740;2022-08-01T06:51:36;16.90;99.90
57833;DHT22;43667;53.036;6.740;2022-08-01T06:54:01;17.30;99.90
57833;DHT22;43667;53.036;6.740;2022-08-01T06:56:27;17.30;99.90
57833;DHT22;43667;53.036;6.740;2022-08-01T06:58:52;17.70;99.90
57833;DHT22;43667;53.036;6.740;2022-08-01T07:01:18;17.40;99.90
57833;DHT22;43667;53.036;6.740;2022-08-01T07:03:44;17.40;99.90
57833;DHT22;43667;53.036;6.740;2022-08-01T07:06:10;17.40;99.90
57833;DHT22;43667;53.036;6.740;2022-08-01T07:08:36;17.40;99.90
57833;DHT22;43667;53.036;6.740;2022-08-01T07:11:01;17.40;99.90
57833;DHT22;43667;53.036;6.740;2022-08-01T07:13:28;17.40;99.90
57833;DHT22;43667;53.036;6.740;2022-08-01T07:15:56;17.50;99.90
57833;DHT22;43667;53.036;6.740;2022-08-01T07:18:22;17.40;99.90
57833;DHT22;43667;53.036;6.740;2022-08-01T07:20:48;17.50;99.90
57833;DHT22;43667;53.036;6.740;2022-08-01T07:23:15;17.20;99.90
57833;DHT22;43667;53.036;6.740;2022-08-01T07:25:41;17.50;99.90
57833;DHT22;43667;53.036;6.740;2022-08-01T07:28:10;17.60;99.90
57833;DHT22;43667;53.036;6.740;2022-08-01T07:30:35;17.60;99.90
57833;DHT22;43667;53.036;6.740;2022-08-01T07:33:03;17.60;99.90
57833;DHT22;43667;53.036;6.740;2022-08-01T07:35:29;17.60;99.90
57833;DHT22;43667;53.036;6.740;2022-08-01T07:37:54;17.70;99.90
57833;DHT22;43667;53.036;6.740;2022-08-01T07:40:20;17.70;99.90
57833;DHT22;43667;53.036;6.740;2022-08-01T07:42:46;18.00;99.90
57833;DHT22;43667;53.036;6.740;2022-08-01T07:45:13;17.70;99.90
57833;DHT22;43667;53.036;6.740;2022-08-01T07:47:39;17.70;99.90
57833;DHT22;43667;53.036;6.740;2022-08-01T07:50:05;17.80;99.90
57833;DHT22;43667;53.036;6.740;2022-08-01T07:52:33;17.90;99.90
57833;DHT22;43667;53.036;6.740;2022-08-01T07:55:00;18.10;99.90
57833;DHT22;43667;53.036;6.740;2022-08-01T07:57:26;18.10;99.90
57833;DHT22;43667;53.036;6.740;2022-08-01T07:59:52;18.20;99.90
57833;DHT22;43667;53.036;6.740;2022-08-01T08:02:18;18.20;99.90
57833;DHT22;43667;53.036;6.740;2022-08-01T08:04:43;18.30;99.90
57833;DHT22;43667;53.036;6.740;2022-08-01T08:07:09;18.30;99.90
57833;DHT22;43667;53.036;6.740;2022-08-01T08:09:35;17.90;99.90
57833;DHT22;43667;53.036;6.740;2022-08-01T08:12:00;18.30;99.90
57833;DHT22;43667;53.036;6.740;2022-08-01T08:14:26;18.40;99.90
57833;DHT22;43667;53.036;6.740;2022-08-01T08:16:52;18.50;99.90
57833;DHT22;43667;53.036;6.740;2022-08-01T08:19:17;18.70;99.90
57833;DHT22;43667;53.036;6.740;2022-08-01T08:21:43;18.90;99.90
57833;DHT22;43667;53.036;6.740;2022-08-01T08:24:10;18.90;99.90
57833;DHT22;43667;53.036;6.740;2022-08-01T08:26:56;18.90;99.90
57833;DHT22;43667;53.036;6.740;2022-08-01T08:29:23;19.30;99.90
57833;DHT22;43667;53.036;6.740;2022-08-01T08:31:50;19.50;99.90
57833;DHT22;43667;53.036;6.740;2022-08-01T08:34:16;19.90;99.90
57833;DHT22;43667;53.036;6.740;2022-08-01T08:36:42;20.30;99.90
57833;DHT22;43667;53.036;6.740;2022-08-01T08:39:08;20.60;99.90
57833;DHT22;43667;53.036;6.740;2022-08-01T08:41:34;20.50;99.90
57833;DHT22;43667;53.036;6.740;2022-08-01T08:44:01;20.40;99.90
57833;DHT22;43667;53.036;6.740;2022-08-01T08:46:28;20.30;99.90
57833;DHT22;43667;53.036;6.740;2022-08-01T08:48:55;20.20;99.90
57833;DHT22;43667;53.036;6.740;2022-08-01T08:51:21;20.50;99.90
57833;DHT22;43667;53.036;6.740;2022-08-01T08:53:49;20.40;99.90
57833;DHT22;43667;53.036;6.740;2022-08-01T08:56:17;20.40;99.90
57833;DHT22;43667;53.036;6.740;2022-08-01T08:58:44;20.50;99.90
57833;DHT22;43667;53.036;6.740;2022-08-01T09:01:11;20.40;99.90
57833;DHT22;43667;53.036;6.740;2022-08-01T09:03:40;20.40;99.90
57833;DHT22;43667;53.036;6.740;2022-08-01T09:06:06;20.30;99.90
57833;DHT22;43667;53.036;6.740;2022-08-01T09:08:32;20.40;99.90
57833;DHT22;43667;53.036;6.740;2022-08-01T09:10:58;20.70;99.90
57833;DHT22;43667;53.036;6.740;2022-08-01T09:13:24;20.40;99.90
57833;DHT22;43667;53.036;6.740;2022-08-01T09:15:54;20.50;99.90
57833;DHT22;43667;53.036;6.740;2022-08-01T09:18:37;20.50;99.90
57833;DHT22;43667;53.036;6.740;2022-08-01T09:23:36;21.00;99.90
57833;DHT22;43667;53.036;6.740;2022-08-01T09:26:05;21.30;99.90
57833;DHT22;43667;53.036;6.740;2022-08-01T09:28:31;21.60;98.90
57833;DHT22;43667;53.036;6.740;2022-08-01T09:30:58;21.80;97.90
57833;DHT22;43667;53.036;6.740;2022-08-01T09:33:50;21.70;97.50
57833;DHT22;43667;53.036;6.740;2022-08-01T09:36:16;21.60;97.50
57833;DHT22;43667;53.036;6.740;2022-08-01T09:38:43;21.80;98.30
57833;DHT22;43667;53.036;6.740;2022-08-01T09:41:08;22.10;98.50
57833;DHT22;43667;53.036;6.740;2022-08-01T09:43:34;22.30;96.00
57833;DHT22;43667;53.036;6.740;2022-08-01T09:46:10;22.60;95.50
57833;DHT22;43667;53.036;6.740;2022-08-01T09:48:37;22.70;92.70
57833;DHT22;43667;53.036;6.740;2022-08-01T09:51:05;22.60;90.20
57833;DHT22;43667;53.036;6.740;2022-08-01T09:53:48;22.60;90.80
57833;DHT22;43667;53.036;6.740;2022-08-01T09:56:14;22.80;88.80
57833;DHT22;43667;53.036;6.740;2022-08-01T09:58:57;22.90;87.60
57833;DHT22;43667;53.036;6.740;2022-08-01T10:01:24;22.90;82.00
57833;DHT22;43667;53.036;6.740;2022-08-01T10:04:25;23.00;85.30
57833;DHT22;43667;53.036;6.740;2022-08-01T10:06:51;23.10;76.90
57833;DHT22;43667;53.036;6.740;2022-08-01T10:09:29;23.30;85.90
57833;DHT22;43667;53.036;6.740;2022-08-01T10:11:59;23.20;79.60
57833;DHT22;43667;53.036;6.740;2022-08-01T10:14:27;23.00;80.30
57833;DHT22;43667;53.036;6.740;2022-08-01T10:16:56;22.70;82.90
57833;DHT22;43667;53.036;6.740;2022-08-01T10:19:23;22.80;84.10
57833;DHT22;43667;53.036;6.740;2022-08-01T10:21:54;22.80;79.70
57833;DHT22;43667;53.036;6.740;2022-08-01T10:24:21;22.70;81.20
57833;DHT22;43667;53.036;6.740;2022-08-01T10:26:57;22.70;80.60
57833;DHT22;43667;53.036;6.740;2022-08-01T10:29:27;22.90;79.60
57833;DHT22;43667;53.036;6.740;2022-08-01T10:31:57;23.00;79.20
57833;DHT22;43667;53.036;6.740;2022-08-01T10:34:23;23.20;77.90
57833;DHT22;43667;53.036;6.740;2022-08-01T10:36:49;23.20;74.60
57833;DHT22;43667;53.036;6.740;2022-08-01T10:39:14;23.20;74.40
57833;DHT22;43667;53.036;6.740;2022-08-01T10:41:41;23.20;72.80
57833;DHT22;43667;53.036;6.740;2022-08-01T10:44:08;23.20;72.00
57833;DHT22;43667;53.036;6.740;2022-08-01T10:46:39;23.30;73.40
57833;DHT22;43667;53.036;6.740;2022-08-01T10:49:12;23.70;72.80
57833;DHT22;43667;53.036;6.740;2022-08-01T10:51:39;24.00;69.60
57833;DHT22;43667;53.036;6.740;2022-08-01T10:54:07;24.00;69.30
57833;DHT22;43667;53.036;6.740;2022-08-01T10:56:46;23.60;69.70
57833;DHT22;43667;53.036;6.740;2022-08-01T10:59:24;23.20;71.00
57833;DHT22;43667;53.036;6.740;2022-08-01T11:02:04;23.00;73.70
57833;DHT22;43667;53.036;6.740;2022-08-01T11:04:55;23.10;76.10
57833;DHT22;43667;53.036;6.740;2022-08-01T11:07:42;22.90;67.60
57833;DHT22;43667;53.036;6.740;2022-08-01T11:10:27;22.70;72.90
57833;DHT22;43667;53.036;6.740;2022-08-01T11:12:55;22.70;71.00
57833;DHT22;43667;53.036;6.740;2022-08-01T11:15:22;22.50;73.80
57833;DHT22;43667;53.036;6.740;2022-08-01T11:17:53;22.50;75.30
57833;DHT22;43667;53.036;6.740;2022-08-01T11:33:16;23.20;69.20
57833;DHT22;43667;53.036;6.740;2022-08-01T11:38:44;23.10;67.10
57833;DHT22;43667;53.036;6.740;2022-08-01T11:41:30;23.10;68.50
57833;DHT22;43667;53.036;6.740;2022-08-01T11:44:06;23.30;69.30
57833;DHT22;43667;53.036;6.740;2022-08-01T11:46:46;23.50;64.10
57833;DHT22;43667;53.036;6.740;2022-08-01T11:49:28;23.40;65.80
57833;DHT22;43667;53.036;6.740;2022-08-01T11:52:24;23.40;67.10
57833;DHT22;43667;53.036;6.740;2022-08-01T11:54:55;23.40;62.00
57833;DHT22;43667;53.036;6.740;2022-08-01T11:57:23;23.40;66.20
57833;DHT22;43667;53.036;6.740;2022-08-01T11:59:59;23.50;65.10
57833;DHT22;43667;53.036;6.740;2022-08-01T12:02:30;23.40;66.10
57833;DHT22;43667;53.036;6.740;2022-08-01T12:05:03;23.40;65.60
57833;DHT22;43667;53.036;6.740;2022-08-01T12:07:30;23.40;66.50
57833;DHT22;43667;53.036;6.740;2022-08-01T12:10:11;23.50;65.60
57833;DHT22;43667;53.036;6.740;2022-08-01T12:12:43;23.50;65.40
57833;DHT22;43667;53.036;6.740;2022-08-01T12:15:09;23.60;64.70
57833;DHT22;43667;53.036;6.740;2022-08-01T12:17:47;23.70;63.90
57833;DHT22;43667;53.036;6.740;2022-08-01T12:20:15;23.70;61.80
57833;DHT22;43667;53.036;6.740;2022-08-01T12:22:41;23.70;61.80
57833;DHT22;43667;53.036;6.740;2022-08-01T12:25:10;23.70;61.20
57833;DHT22;43667;53.036;6.740;2022-08-01T12:27:38;23.60;60.80
57833;DHT22;43667;53.036;6.740;2022-08-01T12:30:13;23.60;60.40
57833;DHT22;43667;53.036;6.740;2022-08-01T12:32:40;23.70;59.50
57833;DHT22;43667;53.036;6.740;2022-08-01T12:35:13;23.70;59.50
57833;DHT22;43667;53.036;6.740;2022-08-01T12:37:44;23.80;59.20
57833;DHT22;43667;53.036;6.740;2022-08-01T12:42:40;23.50;58.80
57833;DHT22;43667;53.036;6.740;2022-08-01T12:45:12;23.50;58.50
57833;DHT22;43667;53.036;6.740;2022-08-01T12:47:39;23.60;56.30
57833;DHT22;43667;53.036;6.740;2022-08-01T12:50:07;23.50;57.20
57833;DHT22;43667;53.036;6.740;2022-08-01T12:52:33;23.50;57.60
57833;DHT22;43667;53.036;6.740;2022-08-01T12:55:00;23.60;57.20
57833;DHT22;43667;53.036;6.740;2022-08-01T12:57:26;23.70;57.20
57833;DHT22;43667;53.036;6.740;2022-08-01T13:00:23;23.80;56.00
57833;DHT22;43667;53.036;6.740;2022-08-01T13:03:07;24.00;55.00
57833;DHT22;43667;53.036;6.740;2022-08-01T13:05:53;24.10;56.70
57833;DHT22;43667;53.036;6.740;2022-08-01T13:08:29;24.20;54.60
57833;DHT22;43667;53.036;6.740;2022-08-01T13:11:02;24.30;55.10
57833;DHT22;43667;53.036;6.740;2022-08-01T13:13:37;24.30;54.70
57833;DHT22;43667;53.036;6.740;2022-08-01T13:16:05;24.40;56.40
57833;DHT22;43667;53.036;6.740;2022-08-01T13:18:33;24.50;55.40
57833;DHT22;43667;53.036;6.740;2022-08-01T13:21:20;24.80;55.00
57833;DHT22;43667;53.036;6.740;2022-08-01T13:24:06;24.80;53.50
57833;DHT22;43667;53.036;6.740;2022-08-01T13:26:51;25.00;53.80
57833;DHT22;43667;53.036;6.740;2022-08-01T13:29:21;25.10;51.30
57833;DHT22;43667;53.036;6.740;2022-08-01T13:31:48;25.20;51.70
57833;DHT22;43667;53.036;6.740;2022-08-01T13:34:15;25.20;51.40
57833;DHT22;43667;53.036;6.740;2022-08-01T13:36:41;25.10;51.10
57833;DHT22;43667;53.036;6.740;2022-08-01T13:39:06;25.00;51.10
57833;DHT22;43667;53.036;6.740;2022-08-01T13:41:51;24.70;51.00
57833;DHT22;43667;53.036;6.740;2022-08-01T13:44:17;24.60;52.70
57833;DHT22;43667;53.036;6.740;2022-08-01T13:46:44;24.70;52.40
57833;DHT22;43667;53.036;6.740;2022-08-01T13:49:12;24.80;51.80
57833;DHT22;43667;53.036;6.740;2022-08-01T13:51:38;24.90;51.90
57833;DHT22;43667;53.036;6.740;2022-08-01T13:54:04;24.90;50.60
57833;DHT22;43667;53.036;6.740;2022-08-01T13:56:31;24.90;51.00
57833;DHT22;43667;53.036;6.740;2022-08-01T13:58:57;25.00;52.10
57833;DHT22;43667;53.036;6.740;2022-08-01T14:01:23;25.10;51.60
57833;DHT22;43667;53.036;6.740;2022-08-01T14:03:49;25.10;50.80
57833;DHT22;43667;53.036;6.740;2022-08-01T14:06:16;24.70;50.10
57833;DHT22;43667;53.036;6.740;2022-08-01T14:08:43;24.40;50.70
57833;DHT22;43667;53.036;6.740;2022-08-01T14:11:08;24.30;51.80
57833;DHT22;43667;53.036;6.740;2022-08-01T14:13:34;24.30;51.40
57833;DHT22;43667;53.036;6.740;2022-08-01T14:16:02;24.40;52.00
57833;DHT22;43667;53.036;6.740;2022-08-01T14:18:28;24.50;52.50
57833;DHT22;43667;53.036;6.740;2022-08-01T14:20:54;24.50;52.00
57833;DHT22;43667;53.036;6.740;2022-08-01T14:23:19;24.50;51.20
57833;DHT22;43667;53.036;6.740;2022-08-01T14:25:45;24.50;51.60
57833;DHT22;43667;53.036;6.740;2022-08-01T14:28:10;24.50;52.40
57833;DHT22;43667;53.036;6.740;2022-08-01T14:30:36;24.60;51.00
57833;DHT22;43667;53.036;6.740;2022-08-01T14:33:02;24.50;50.80
57833;DHT22;43667;53.036;6.740;2022-08-01T14:35:28;24.50;52.00
57833;DHT22;43667;53.036;6.740;2022-08-01T14:37:54;24.70;51.80
57833;DHT22;43667;53.036;6.740;2022-08-01T14:40:20;24.80;51.30
57833;DHT22;43667;53.036;6.740;2022-08-01T14:42:45;25.10;50.80
57833;DHT22;43667;53.036;6.740;2022-08-01T14:45:12;25.10;50.30
57833;DHT22;43667;53.036;6.740;2022-08-01T14:47:39;24.90;51.80
57833;DHT22;43667;53.036;6.740;2022-08-01T14:50:08;24.90;50.20
57833;DHT22;43667;53.036;6.740;2022-08-01T14:52:35;24.90;50.70
57833;DHT22;43667;53.036;6.740;2022-08-01T14:55:01;24.80;50.90
57833;DHT22;43667;53.036;6.740;2022-08-01T14:57:27;24.70;50.90
57833;DHT22;43667;53.036;6.740;2022-08-01T14:59:53;24.60;51.30
57833;DHT22;43667;53.036;6.740;2022-08-01T15:02:18;24.60;51.90
57833;DHT22;43667;53.036;6.740;2022-08-01T15:04:45;24.70;51.80
57833;DHT22;43667;53.036;6.740;2022-08-01T15:07:10;24.70;51.80
57833;DHT22;43667;53.036;6.740;2022-08-01T15:09:36;24.80;51.40
57833;DHT22;43667;53.036;6.740;2022-08-01T15:12:02;24.90;51.20
57833;DHT22;43667;53.036;6.740;2022-08-01T15:14:28;25.10;50.90
57833;DHT22;43667;53.036;6.740;2022-08-01T15:19:41;25.20;50.90
57833;DHT22;43667;53.036;6.740;2022-08-01T15:22:07;25.20;51.20
57833;DHT22;43667;53.036;6.740;2022-08-01T15:24:32;25.40;52.20
57833;DHT22;43667;53.036;6.740;2022-08-01T15:26:58;25.70;50.80
57833;DHT22;43667;53.036;6.740;2022-08-01T15:29:24;25.90;49.80
57833;DHT22;43667;53.036;6.740;2022-08-01T15:31:49;26.00;49.30
57833;DHT22;43667;53.036;6.740;2022-08-01T15:34:15;26.20;49.00
57833;DHT22;43667;53.036;6.740;2022-08-01T15:36:40;26.50;49.10
57833;DHT22;43667;53.036;6.740;2022-08-01T15:39:08;26.80;48.90
57833;DHT22;43667;53.036;6.740;2022-08-01T15:41:34;27.00;48.40
57833;DHT22;43667;53.036;6.740;2022-08-01T15:44:00;27.00;47.40
57833;DHT22;43667;53.036;6.740;2022-08-01T15:46:25;27.00;47.00
57833;DHT22;43667;53.036;6.740;2022-08-01T15:48:51;27.20;46.50
57833;DHT22;43667;53.036;6.740;2022-08-01T15:51:17;27.30;46.80
57833;DHT22;43667;53.036;6.740;2022-08-01T15:53:42;27.40;46.40
57833;DHT22;43667;53.036;6.740;2022-08-01T15:56:09;27.50;45.50
57833;DHT22;43667;53.036;6.740;2022-08-01T15:58:35;27.40;45.60
57833;DHT22;43667;53.036;6.740;2022-08-01T16:01:00;27.60;45.30
57833;DHT22;43667;53.036;6.740;2022-08-01T16:03:26;27.80;45.50
57833;DHT22;43667;53.036;6.740;2022-08-01T16:05:52;28.20;45.20
57833;DHT22;43667;53.036;6.740;2022-08-01T16:08:18;28.40;44.60
57833;DHT22;43667;53.036;6.740;2022-08-01T16:10:43;28.40;43.90